sensor_id;sensor_type;location;lat;lon;timestamp;pressure;altitude;pressure_sealevel;temperature;humidity
54870;BME280;40756;-37.950;145.008;2023-01-28T00:01:14;100534.85;;;31.01;25.49
54870;BME280;40756;-37.950;145.008;2023-01-28T00:03:43;100521.93;;;30.98;25.22
54870;BME280;40756;-37.950;145.008;2023-01-28T00:06:14;100525.49;;;31.18;24.89
54870;BME280;40756;-37.950;145.008;2023-01-28T00:08:44;100533.58;;;30.99;24.90
54870;BME280;40756;-37.950;145.008;2023-01-28T00:11:14;100530.06;;;31.15;24.97
54870;BME280;40756;-37.950;145.008;2023-01-28T00:13:44;100518.23;;;31.22;24.41
54870;BME280;40756;-37.950;145.008;2023-01-28T00:16:13;100515.60;;;31.48;24.49
54870;BME280;40756;-37.950;145.008;2023-01-28T00:18:43;100512.21;;;30.78;23.53
54870;BME280;40756;-37.950;145.008;2023-01-28T00:21:14;100522.32;;;31.63;23.59
54870;BME280;40756;-37.950;145.008;2023-01-28T00:23:49;100514.41;;;31.47;23.07
54870;BME280;40756;-37.950;145.008;2023-01-28T00:26:21;100509.39;;;31.70;22.94
54870;BME280;40756;-37.950;145.008;2023-01-28T00:28:51;100515.71;;;31.76;22.21
54870;BME280;40756;-37.950;145.008;2023-01-28T00:31:22;100519.01;;;31.79;22.26
54870;BME280;40756;-37.950;145.008;2023-01-28T00:33:52;100526.65;;;31.82;21.89
54870;BME280;40756;-37.950;145.008;2023-01-28T00:36:23;100527.24;;;32.35;22.28
54870;BME280;40756;-37.950;145.008;2023-01-28T00:38:54;100522.21;;;32.42;21.69
54870;BME280;40756;-37.950;145.008;2023-01-28T00:41:25;100521.20;;;32.69;21.20
54870;BME280;40756;-37.950;145.008;2023-01-28T00:43:55;100520.78;;;32.75;20.92
54870;BME280;40756;-37.950;145.008;2023-01-28T00:46:25;100524.19;;;32.55;20.77
54870;BME280;40756;-37.950;145.008;2023-01-28T00:48:54;100518.22;;;32.39;20.40
54870;BME280;40756;-37.950;145.008;2023-01-28T00:51:24;100504.85;;;33.05;20.98
54870;BME280;40756;-37.950;145.008;2023-01-28T00:53:53;100502.88;;;33.03;21.14
54870;BME280;40756;-37.950;145.008;2023-01-28T00:56:22;100493.81;;;32.97;20.48
54870;BME280;40756;-37.950;145.008;2023-01-28T00:58:51;100487.58;;;33.15;21.03
54870;BME280;40756;-37.950;145.008;2023-01-28T01:01:23;100481.12;;;33.28;21.16
54870;BME280;40756;-37.950;145.008;2023-01-28T01:03:54;100479.68;;;33.22;19.23
54870;BME280;40756;-37.950;145.008;2023-01-28T01:06:25;100480.18;;;32.99;18.81
54870;BME280;40756;-37.950;145.008;2023-01-28T01:08:54;100476.52;;;33.56;18.52
54870;BME280;40756;-37.950;145.008;2023-01-28T01:11:24;100484.26;;;34.02;18.40
54870;BME280;40756;-37.950;145.008;2023-01-28T01:13:55;100480.04;;;33.92;17.66
54870;BME280;40756;-37.950;145.008;2023-01-28T01:16:27;100483.62;;;33.85;18.18
54870;BME280;40756;-37.950;145.008;2023-01-28T01:18:58;100493.07;;;34.03;17.62
54870;BME280;40756;-37.950;145.008;2023-01-28T01:21:29;100484.70;;;34.22;17.86
54870;BME280;40756;-37.950;145.008;2023-01-28T01:23:59;100482.23;;;33.99;18.36
54870;BME280;40756;-37.950;145.008;2023-01-28T01:26:28;100479.36;;;33.91;17.18
54870;BME280;40756;-37.950;145.008;2023-01-28T01:28:57;100473.23;;;34.31;17.11
54870;BME280;40756;-37.950;145.008;2023-01-28T01:31:27;100464.95;;;34.30;17.62
54870;BME280;40756;-37.950;145.008;2023-01-28T01:33:56;100463.81;;;34.36;16.87
54870;BME280;40756;-37.950;145.008;2023-01-28T01:36:25;100465.23;;;35.06;17.10
54870;BME280;40756;-37.950;145.008;2023-01-28T01:38:55;100460.36;;;34.55;16.06
54870;BME280;40756;-37.950;145.008;2023-01-28T01:41:27;100447.52;;;35.49;16.04
54870;BME280;40756;-37.950;145.008;2023-01-28T01:43:59;100442.83;;;35.63;16.63
54870;BME280;40756;-37.950;145.008;2023-01-28T01:46:35;100433.13;;;36.23;15.49
54870;BME280;40756;-37.950;145.008;2023-01-28T01:49:14;100423.49;;;36.42;15.02
54870;BME280;40756;-37.950;145.008;2023-01-28T01:51:50;100426.71;;;36.69;15.64
54870;BME280;40756;-37.950;145.008;2023-01-28T01:54:24;100442.58;;;37.01;15.08
54870;BME280;40756;-37.950;145.008;2023-01-28T01:56:57;100435.14;;;36.74;12.48
54870;BME280;40756;-37.950;145.008;2023-01-28T01:59:30;100434.62;;;36.85;12.58
54870;BME280;40756;-37.950;145.008;2023-01-28T02:02:03;100428.82;;;37.45;12.62
54870;BME280;40756;-37.950;145.008;2023-01-28T02:04:38;100427.44;;;37.73;13.70
54870;BME280;40756;-37.950;145.008;2023-01-28T02:07:09;100427.30;;;37.06;12.38
54870;BME280;40756;-37.950;145.008;2023-01-28T02:09:39;100434.95;;;36.89;12.92
54870;BME280;40756;-37.950;145.008;2023-01-28T02:12:12;100440.29;;;37.21;12.02
54870;BME280;40756;-37.950;145.008;2023-01-28T02:14:47;100437.88;;;37.65;11.49
54870;BME280;40756;-37.950;145.008;2023-01-28T02:17:19;100434.49;;;37.45;11.58
54870;BME280;40756;-37.950;145.008;2023-01-28T02:19:55;100431.64;;;38.17;12.38
54870;BME280;40756;-37.950;145.008;2023-01-28T02:23:18;100434.17;;;37.82;11.65
54870;BME280;40756;-37.950;145.008;2023-01-28T02:26:48;100426.32;;;37.55;12.16
54870;BME280;40756;-37.950;145.008;2023-01-28T02:29:26;100425.48;;;38.25;12.04
54870;BME280;40756;-37.950;145.008;2023-01-28T02:32:07;100427.14;;;37.36;11.90
54870;BME280;40756;-37.950;145.008;2023-01-28T02:34:43;100423.38;;;37.77;11.49
54870;BME280;40756;-37.950;145.008;2023-01-28T02:37:18;100423.92;;;37.22;11.28
54870;BME280;40756;-37.950;145.008;2023-01-28T02:39:53;100418.90;;;38.11;11.94
54870;BME280;40756;-37.950;145.008;2023-01-28T02:42:29;100417.54;;;37.51;12.12
54870;BME280;40756;-37.950;145.008;2023-01-28T02:45:00;100419.74;;;36.37;12.43
54870;BME280;40756;-37.950;145.008;2023-01-28T02:47:29;100421.45;;;36.99;12.40
54870;BME280;40756;-37.950;145.008;2023-01-28T02:50:00;100416.18;;;36.74;12.11
54870;BME280;40756;-37.950;145.008;2023-01-28T02:52:40;100413.79;;;36.91;13.08
54870;BME280;40756;-37.950;145.008;2023-01-28T02:55:20;100413.59;;;36.87;12.96
54870;BME280;40756;-37.950;145.008;2023-01-28T02:58:00;100414.87;;;36.99;13.22
54870;BME280;40756;-37.950;145.008;2023-01-28T03:00:39;100423.00;;;36.94;13.50
54870;BME280;40756;-37.950;145.008;2023-01-28T03:03:17;100423.41;;;37.11;13.63
54870;BME280;40756;-37.950;145.008;2023-01-28T03:05:52;100428.54;;;37.12;12.22
54870;BME280;40756;-37.950;145.008;2023-01-28T03:08:23;100431.41;;;36.73;11.75
54870;BME280;40756;-37.950;145.008;2023-01-28T03:10:56;100434.43;;;37.12;12.68
54870;BME280;40756;-37.950;145.008;2023-01-28T03:13:27;100434.18;;;37.17;12.58
54870;BME280;40756;-37.950;145.008;2023-01-28T03:15:56;100430.10;;;37.08;11.31
54870;BME280;40756;-37.950;145.008;2023-01-28T03:18:27;100428.25;;;37.05;12.03
54870;BME280;40756;-37.950;145.008;2023-01-28T03:21:05;100432.48;;;36.70;10.97
54870;BME280;40756;-37.950;145.008;2023-01-28T03:23:42;100436.63;;;37.43;11.51
54870;BME280;40756;-37.950;145.008;2023-01-28T03:26:15;100433.71;;;36.71;11.35
54870;BME280;40756;-37.950;145.008;2023-01-28T03:28:50;100429.60;;;37.13;12.17
54870;BME280;40756;-37.950;145.008;2023-01-28T03:31:22;100428.17;;;37.21;11.62
54870;BME280;40756;-37.950;145.008;2023-01-28T03:33:59;100427.25;;;37.35;11.61
54870;BME280;40756;-37.950;145.008;2023-01-28T03:36:31;100427.88;;;36.34;11.43
54870;BME280;40756;-37.950;145.008;2023-01-28T03:39:01;100424.46;;;36.33;12.21
54870;BME280;40756;-37.950;145.008;2023-01-28T03:41:30;100420.46;;;36.73;13.39
54870;BME280;40756;-37.950;145.008;2023-01-28T03:44:00;100413.52;;;36.32;12.91
54870;BME280;40756;-37.950;145.008;2023-01-28T03:46:30;100412.88;;;36.53;12.47
54870;BME280;40756;-37.950;145.008;2023-01-28T03:48:59;100414.21;;;36.35;13.01
54870;BME280;40756;-37.950;145.008;2023-01-28T03:51:28;100410.95;;;36.25;13.89
54870;BME280;40756;-37.950;145.008;2023-01-28T03:53:57;100412.64;;;36.32;13.21
54870;BME280;40756;-37.950;145.008;2023-01-28T03:56:26;100407.93;;;36.18;12.14
54870;BME280;40756;-37.950;145.008;2023-01-28T03:58:56;100407.50;;;36.21;12.75
54870;BME280;40756;-37.950;145.008;2023-01-28T04:01:26;100406.28;;;35.85;14.25
54870;BME280;40756;-37.950;145.008;2023-01-28T04:03:55;100411.58;;;34.59;17.13
54870;BME280;40756;-37.950;145.008;2023-01-28T04:06:25;100404.09;;;34.55;17.94
54870;BME280;40756;-37.950;145.008;2023-01-28T04:08:54;100391.11;;;33.23;20.45
54870;BME280;40756;-37.950;145.008;2023-01-28T04:11:23;100386.24;;;33.19;20.73
54870;BME280;40756;-37.950;145.008;2023-01-28T04:13:53;100406.56;;;32.48;21.44
54870;BME280;40756;-37.950;145.008;2023-01-28T04:16:22;100408.09;;;33.07;21.61
54870;BME280;40756;-37.950;145.008;2023-01-28T04:18:52;100407.77;;;32.53;21.29
54870;BME280;40756;-37.950;145.008;2023-01-28T04:21:22;100415.13;;;32.98;21.14
54870;BME280;40756;-37.950;145.008;2023-01-28T04:23:51;100415.43;;;31.51;21.12
54870;BME280;40756;-37.950;145.008;2023-01-28T04:26:20;100407.85;;;31.73;21.75
54870;BME280;40756;-37.950;145.008;2023-01-28T04:28:50;100418.30;;;31.30;25.05
54870;BME280;40756;-37.950;145.008;2023-01-28T04:31:20;100421.64;;;31.33;26.01
54870;BME280;40756;-37.950;145.008;2023-01-28T04:33:49;100425.82;;;31.21;26.43
54870;BME280;40756;-37.950;145.008;2023-01-28T04:36:18;100427.88;;;31.04;26.64
54870;BME280;40756;-37.950;145.008;2023-01-28T04:38:47;100432.25;;;31.01;25.32
54870;BME280;40756;-37.950;145.008;2023-01-28T04:41:18;100435.23;;;31.37;24.99
54870;BME280;40756;-37.950;145.008;2023-01-28T04:43:48;100440.12;;;31.17;23.82
54870;BME280;40756;-37.950;145.008;2023-01-28T04:46:17;100441.05;;;30.63;24.05
54870;BME280;40756;-37.950;145.008;2023-01-28T04:48:46;100442.82;;;31.02;23.62
54870;BME280;40756;-37.950;145.008;2023-01-28T04:51:16;100437.16;;;31.27;24.05
54870;BME280;40756;-37.950;145.008;2023-01-28T04:53:46;100432.95;;;31.23;23.15
54870;BME280;40756;-37.950;145.008;2023-01-28T04:56:15;100430.45;;;31.59;22.53
54870;BME280;40756;-37.950;145.008;2023-01-28T04:58:44;100433.86;;;31.35;22.47
54870;BME280;40756;-37.950;145.008;2023-01-28T05:01:14;100434.88;;;31.29;21.76
54870;BME280;40756;-37.950;145.008;2023-01-28T05:03:43;100442.02;;;31.35;22.01
54870;BME280;40756;-37.950;145.008;2023-01-28T05:06:12;100456.98;;;29.69;24.87
54870;BME280;40756;-37.950;145.008;2023-01-28T05:08:42;100451.56;;;30.57;24.91
54870;BME280;40756;-37.950;145.008;2023-01-28T05:11:11;100452.77;;;29.91;26.25
54870;BME280;40756;-37.950;145.008;2023-01-28T05:13:40;100459.47;;;28.89;27.39
54870;BME280;40756;-37.950;145.008;2023-01-28T05:16:09;100460.53;;;28.37;29.72
54870;BME280;40756;-37.950;145.008;2023-01-28T05:18:39;100457.89;;;28.33;30.30
54870;BME280;40756;-37.950;145.008;2023-01-28T05:21:08;100458.11;;;28.26;30.57
54870;BME280;40756;-37.950;145.008;2023-01-28T05:23:38;100458.17;;;27.98;32.20
54870;BME280;40756;-37.950;145.008;2023-01-28T05:26:08;100454.13;;;27.70;33.25
54870;BME280;40756;-37.950;145.008;2023-01-28T05:28:37;100460.89;;;27.01;34.49
54870;BME280;40756;-37.950;145.008;2023-01-28T05:31:08;100455.14;;;27.05;34.46
54870;BME280;40756;-37.950;145.008;2023-01-28T05:33:38;100456.15;;;27.65;33.27
54870;BME280;40756;-37.950;145.008;2023-01-28T05:36:08;100451.69;;;26.94;33.58
54870;BME280;40756;-37.950;145.008;2023-01-28T05:38:38;100457.67;;;27.63;33.02
54870;BME280;40756;-37.950;145.008;2023-01-28T05:41:07;100458.09;;;27.44;32.87
54870;BME280;40756;-37.950;145.008;2023-01-28T05:43:36;100456.22;;;26.87;32.98
54870;BME280;40756;-37.950;145.008;2023-01-28T05:46:06;100457.02;;;26.74;32.66
54870;BME280;40756;-37.950;145.008;2023-01-28T05:48:35;100463.44;;;27.21;32.52
54870;BME280;40756;-37.950;145.008;2023-01-28T05:51:05;100474.81;;;27.16;32.95
54870;BME280;40756;-37.950;145.008;2023-01-28T05:53:35;100474.78;;;26.80;34.18
54870;BME280;40756;-37.950;145.008;2023-01-28T05:56:04;100468.86;;;27.17;35.16
54870;BME280;40756;-37.950;145.008;2023-01-28T05:58:34;100467.55;;;27.15;35.91
54870;BME280;40756;-37.950;145.008;2023-01-28T06:01:04;100464.59;;;27.08;37.08
54870;BME280;40756;-37.950;145.008;2023-01-28T06:03:33;100460.09;;;26.11;38.50
54870;BME280;40756;-37.950;145.008;2023-01-28T06:06:02;100468.29;;;25.91;38.69
54870;BME280;40756;-37.950;145.008;2023-01-28T06:08:32;100467.91;;;25.86;39.47
54870;BME280;40756;-37.950;145.008;2023-01-28T06:11:01;100460.81;;;25.33;40.98
54870;BME280;40756;-37.950;145.008;2023-01-28T06:13:31;100462.19;;;25.29;41.75
54870;BME280;40756;-37.950;145.008;2023-01-28T06:16:01;100462.55;;;25.27;42.10
54870;BME280;40756;-37.950;145.008;2023-01-28T06:18:30;100463.44;;;24.33;43.25
54870;BME280;40756;-37.950;145.008;2023-01-28T06:20:59;100465.24;;;24.66;43.19
54870;BME280;40756;-37.950;145.008;2023-01-28T06:23:29;100484.93;;;24.95;43.18
54870;BME280;40756;-37.950;145.008;2023-01-28T06:25:59;100491.69;;;25.14;42.48
54870;BME280;40756;-37.950;145.008;2023-01-28T06:28:28;100482.46;;;24.71;43.29
54870;BME280;40756;-37.950;145.008;2023-01-28T06:30:58;100476.78;;;25.13;42.63
54870;BME280;40756;-37.950;145.008;2023-01-28T06:33:27;100468.14;;;25.52;42.21
54870;BME280;40756;-37.950;145.008;2023-01-28T06:35:57;100477.23;;;25.33;41.44
54870;BME280;40756;-37.950;145.008;2023-01-28T06:38:26;100488.00;;;25.70;41.15
54870;BME280;40756;-37.950;145.008;2023-01-28T06:40:55;100486.98;;;25.43;41.11
54870;BME280;40756;-37.950;145.008;2023-01-28T06:43:25;100484.83;;;25.56;41.29
54870;BME280;40756;-37.950;145.008;2023-01-28T06:45:54;100490.52;;;25.08;42.67
54870;BME280;40756;-37.950;145.008;2023-01-28T06:48:24;100495.03;;;25.62;42.31
54870;BME280;40756;-37.950;145.008;2023-01-28T06:50:54;100492.39;;;24.96;42.57
54870;BME280;40756;-37.950;145.008;2023-01-28T06:53:24;100490.85;;;24.72;42.77
54870;BME280;40756;-37.950;145.008;2023-01-28T06:55:54;100485.43;;;25.66;42.14
54870;BME280;40756;-37.950;145.008;2023-01-28T06:58:23;100496.48;;;25.54;42.38
54870;BME280;40756;-37.950;145.008;2023-01-28T07:00:54;100501.82;;;25.81;42.71
54870;BME280;40756;-37.950;145.008;2023-01-28T07:03:23;100512.25;;;25.43;43.03
54870;BME280;40756;-37.950;145.008;2023-01-28T07:05:52;100513.80;;;25.13;43.22
54870;BME280;40756;-37.950;145.008;2023-01-28T07:08:21;100511.55;;;25.43;43.13
54870;BME280;40756;-37.950;145.008;2023-01-28T07:10:51;100510.14;;;25.92;41.83
54870;BME280;40756;-37.950;145.008;2023-01-28T07:13:20;100507.92;;;26.25;40.52
54870;BME280;40756;-37.950;145.008;2023-01-28T07:15:49;100505.21;;;26.14;40.36
54870;BME280;40756;-37.950;145.008;2023-01-28T07:18:19;100495.35;;;26.24;39.62
54870;BME280;40756;-37.950;145.008;2023-01-28T07:20:48;100496.51;;;26.17;39.10
54870;BME280;40756;-37.950;145.008;2023-01-28T07:23:18;100510.74;;;26.51;39.15
54870;BME280;40756;-37.950;145.008;2023-01-28T07:25:47;100524.00;;;26.44;39.43
54870;BME280;40756;-37.950;145.008;2023-01-28T07:28:17;100540.21;;;25.72;40.98
54870;BME280;40756;-37.950;145.008;2023-01-28T07:30:48;100541.17;;;24.59;45.93
54870;BME280;40756;-37.950;145.008;2023-01-28T07:33:17;100547.18;;;24.85;46.40
54870;BME280;40756;-37.950;145.008;2023-01-28T07:35:47;100548.05;;;24.72;45.80
54870;BME280;40756;-37.950;145.008;2023-01-28T07:38:17;100538.83;;;24.39;47.11
54870;BME280;40756;-37.950;145.008;2023-01-28T07:40:47;100530.79;;;24.05;47.52
54870;BME280;40756;-37.950;145.008;2023-01-28T07:43:17;100527.68;;;24.01;49.12
54870;BME280;40756;-37.950;145.008;2023-01-28T07:45:46;100529.96;;;24.74;47.83
54870;BME280;40756;-37.950;145.008;2023-01-28T07:48:17;100531.80;;;24.48;47.86
54870;BME280;40756;-37.950;145.008;2023-01-28T07:50:47;100540.72;;;24.27;47.81
54870;BME280;40756;-37.950;145.008;2023-01-28T07:53:16;100553.05;;;24.44;47.22
54870;BME280;40756;-37.950;145.008;2023-01-28T07:55:45;100552.12;;;24.11;47.45
54870;BME280;40756;-37.950;145.008;2023-01-28T07:58:15;100550.80;;;23.94;48.35
54870;BME280;40756;-37.950;145.008;2023-01-28T08:00:44;100552.23;;;23.77;47.53
54870;BME280;40756;-37.950;145.008;2023-01-28T08:03:14;100560.79;;;24.19;47.30
54870;BME280;40756;-37.950;145.008;2023-01-28T08:05:46;100556.83;;;23.91;48.34
54870;BME280;40756;-37.950;145.008;2023-01-28T08:08:16;100562.24;;;24.53;47.88
54870;BME280;40756;-37.950;145.008;2023-01-28T08:10:47;100564.98;;;24.14;47.87
54870;BME280;40756;-37.950;145.008;2023-01-28T08:13:18;100569.14;;;24.09;48.03
54870;BME280;40756;-37.950;145.008;2023-01-28T08:15:48;100576.19;;;24.31;47.84
54870;BME280;40756;-37.950;145.008;2023-01-28T08:18:17;100582.66;;;24.23;47.88
54870;BME280;40756;-37.950;145.008;2023-01-28T08:20:46;100577.15;;;23.79;49.28
54870;BME280;40756;-37.950;145.008;2023-01-28T08:23:17;100563.56;;;24.09;48.80
54870;BME280;40756;-37.950;145.008;2023-01-28T08:25:48;100556.90;;;24.10;48.50
54870;BME280;40756;-37.950;145.008;2023-01-28T08:28:19;100565.72;;;23.72;49.60
54870;BME280;40756;-37.950;145.008;2023-01-28T08:30:49;100574.17;;;24.05;48.95
54870;BME280;40756;-37.950;145.008;2023-01-28T08:33:19;100596.09;;;23.59;50.14
54870;BME280;40756;-37.950;145.008;2023-01-28T08:35:49;100604.16;;;23.08;51.31
54870;BME280;40756;-37.950;145.008;2023-01-28T08:38:18;100594.78;;;23.80;50.29
54870;BME280;40756;-37.950;145.008;2023-01-28T08:40:48;100594.93;;;23.82;51.03
54870;BME280;40756;-37.950;145.008;2023-01-28T08:43:18;100590.60;;;23.23;51.54
54870;BME280;40756;-37.950;145.008;2023-01-28T08:45:48;100592.31;;;22.87;51.53
54870;BME280;40756;-37.950;145.008;2023-01-28T08:48:18;100599.80;;;23.30;51.24
54870;BME280;40756;-37.950;145.008;2023-01-28T08:50:47;100610.83;;;23.94;51.01
54870;BME280;40756;-37.950;145.008;2023-01-28T08:53:18;100628.86;;;22.82;52.77
54870;BME280;40756;-37.950;145.008;2023-01-28T08:55:48;100632.14;;;22.86;52.93
54870;BME280;40756;-37.950;145.008;2023-01-28T08:58:19;100636.49;;;23.30;51.68
54870;BME280;40756;-37.950;145.008;2023-01-28T09:00:48;100628.83;;;23.61;51.23
54870;BME280;40756;-37.950;145.008;2023-01-28T09:03:18;100636.18;;;23.70;50.25
54870;BME280;40756;-37.950;145.008;2023-01-28T09:05:48;100634.31;;;23.80;49.37
54870;BME280;40756;-37.950;145.008;2023-01-28T09:08:17;100628.93;;;23.88;48.89
54870;BME280;40756;-37.950;145.008;2023-01-28T09:10:47;100634.11;;;24.18;47.97
54870;BME280;40756;-37.950;145.008;2023-01-28T09:13:16;100650.74;;;23.59;47.68
54870;BME280;40756;-37.950;145.008;2023-01-28T09:15:45;100656.44;;;23.98;46.75
54870;BME280;40756;-37.950;145.008;2023-01-28T09:18:15;100663.51;;;23.74;46.34
54870;BME280;40756;-37.950;145.008;2023-01-28T09:20:45;100674.18;;;23.85;45.21
54870;BME280;40756;-37.950;145.008;2023-01-28T09:23:14;100677.23;;;23.95;45.36
54870;BME280;40756;-37.950;145.008;2023-01-28T09:25:44;100691.53;;;23.61;45.79
54870;BME280;40756;-37.950;145.008;2023-01-28T09:28:14;100691.41;;;23.52;45.91
54870;BME280;40756;-37.950;145.008;2023-01-28T09:30:44;100683.59;;;24.04;45.23
54870;BME280;40756;-37.950;145.008;2023-01-28T09:33:14;100673.30;;;24.04;45.23
54870;BME280;40756;-37.950;145.008;2023-01-28T09:35:43;100654.25;;;23.66;45.32
54870;BME280;40756;-37.950;145.008;2023-01-28T09:38:13;100640.92;;;23.19;46.12
54870;BME280;40756;-37.950;145.008;2023-01-28T09:40:43;100642.94;;;24.06;45.49
54870;BME280;40756;-37.950;145.008;2023-01-28T09:43:32;100656.25;;;24.37;44.77
54870;BME280;40756;-37.950;145.008;2023-01-28T09:46:05;100661.96;;;23.70;44.39
54870;BME280;40756;-37.950;145.008;2023-01-28T09:48:40;100669.52;;;24.09;43.72
54870;BME280;40756;-37.950;145.008;2023-01-28T09:51:26;100670.83;;;24.38;43.36
54870;BME280;40756;-37.950;145.008;2023-01-28T09:54:01;100689.99;;;24.21;43.12
54870;BME280;40756;-37.950;145.008;2023-01-28T09:56:39;100703.58;;;24.40;42.46
54870;BME280;40756;-37.950;145.008;2023-01-28T09:59:18;100713.36;;;24.30;42.28
54870;BME280;40756;-37.950;145.008;2023-01-28T10:01:55;100712.65;;;24.71;41.96
54870;BME280;40756;-37.950;145.008;2023-01-28T10:04:38;100707.98;;;24.38;41.86
54870;BME280;40756;-37.950;145.008;2023-01-28T10:07:22;100723.93;;;24.66;41.54
54870;BME280;40756;-37.950;145.008;2023-01-28T10:10:00;100728.93;;;24.55;41.73
54870;BME280;40756;-37.950;145.008;2023-01-28T10:13:04;100729.96;;;24.58;41.83
54870;BME280;40756;-37.950;145.008;2023-01-28T10:16:18;100712.91;;;24.73;41.78
54870;BME280;40756;-37.950;145.008;2023-01-28T10:18:53;100700.48;;;24.64;42.24
54870;BME280;40756;-37.950;145.008;2023-01-28T10:21:29;100686.84;;;24.54;42.60
54870;BME280;40756;-37.950;145.008;2023-01-28T10:24:05;100677.92;;;24.39;42.74
54870;BME280;40756;-37.950;145.008;2023-01-28T10:26:40;100677.76;;;24.10;43.45
54870;BME280;40756;-37.950;145.008;2023-01-28T10:29:15;100683.35;;;24.17;43.51
54870;BME280;40756;-37.950;145.008;2023-01-28T10:31:56;100685.95;;;24.09;43.95
54870;BME280;40756;-37.950;145.008;2023-01-28T10:34:28;100677.28;;;23.92;43.88
54870;BME280;40756;-37.950;145.008;2023-01-28T10:36:58;100685.36;;;24.38;44.01
54870;BME280;40756;-37.950;145.008;2023-01-28T10:39:28;100690.85;;;24.39;44.17
54870;BME280;40756;-37.950;145.008;2023-01-28T10:41:58;100689.17;;;24.13;44.22
54870;BME280;40756;-37.950;145.008;2023-01-28T10:44:31;100690.47;;;24.09;44.24
54870;BME280;40756;-37.950;145.008;2023-01-28T10:47:07;100686.47;;;24.28;44.26
54870;BME280;40756;-37.950;145.008;2023-01-28T10:49:44;100681.16;;;24.17;44.56
54870;BME280;40756;-37.950;145.008;2023-01-28T10:52:16;100683.97;;;23.84;44.74
54870;BME280;40756;-37.950;145.008;2023-01-28T10:54:45;100702.10;;;24.00;44.76
54870;BME280;40756;-37.950;145.008;2023-01-28T10:57:16;100714.90;;;23.94;44.44
54870;BME280;40756;-37.950;145.008;2023-01-28T10:59:46;100721.59;;;24.06;44.26
54870;BME280;40756;-37.950;145.008;2023-01-28T11:02:28;100720.85;;;24.14;44.21
54870;BME280;40756;-37.950;145.008;2023-01-28T11:05:04;100718.22;;;24.12;44.19
54870;BME280;40756;-37.950;145.008;2023-01-28T11:07:34;100722.26;;;24.21;44.03
54870;BME280;40756;-37.950;145.008;2023-01-28T11:10:20;100723.07;;;24.05;44.16
54870;BME280;40756;-37.950;145.008;2023-01-28T11:12:56;100739.90;;;23.65;44.81
54870;BME280;40756;-37.950;145.008;2023-01-28T11:15:27;100745.81;;;23.85;45.03
54870;BME280;40756;-37.950;145.008;2023-01-28T11:17:59;100754.06;;;23.97;44.31
54870;BME280;40756;-37.950;145.008;2023-01-28T11:20:34;100764.82;;;24.03;44.27
54870;BME280;40756;-37.950;145.008;2023-01-28T11:23:06;100766.08;;;24.13;44.08
54870;BME280;40756;-37.950;145.008;2023-01-28T11:25:36;100768.54;;;23.98;44.47
54870;BME280;40756;-37.950;145.008;2023-01-28T11:28:14;100782.16;;;24.02;44.20
54870;BME280;40756;-37.950;145.008;2023-01-28T11:30:51;100805.34;;;24.15;44.00
54870;BME280;40756;-37.950;145.008;2023-01-28T11:33:31;100804.95;;;23.90;44.77
54870;BME280;40756;-37.950;145.008;2023-01-28T11:36:11;100797.06;;;23.88;45.28
54870;BME280;40756;-37.950;145.008;2023-01-28T11:38:51;100802.25;;;23.90;46.90
54870;BME280;40756;-37.950;145.008;2023-01-28T11:41:28;100799.00;;;24.32;47.40
54870;BME280;40756;-37.950;145.008;2023-01-28T11:43:59;100790.56;;;23.61;48.41
54870;BME280;40756;-37.950;145.008;2023-01-28T11:47:13;100787.70;;;22.98;50.12
54870;BME280;40756;-37.950;145.008;2023-01-28T11:49:57;100791.53;;;23.43;50.09
54870;BME280;40756;-37.950;145.008;2023-01-28T11:52:40;100797.25;;;23.30;50.09
54870;BME280;40756;-37.950;145.008;2023-01-28T11:55:24;100804.39;;;23.10;50.76
54870;BME280;40756;-37.950;145.008;2023-01-28T11:58:05;100820.40;;;23.36;50.01
54870;BME280;40756;-37.950;145.008;2023-01-28T12:00:43;100824.07;;;22.54;51.59
54870;BME280;40756;-37.950;145.008;2023-01-28T12:03:30;100809.71;;;22.74;52.17
54870;BME280;40756;-37.950;145.008;2023-01-28T12:06:18;100808.41;;;21.96;55.15
54870;BME280;40756;-37.950;145.008;2023-01-28T12:08:56;100795.39;;;22.34;54.50
54870;BME280;40756;-37.950;145.008;2023-01-28T12:11:36;100794.70;;;21.73;55.35
54870;BME280;40756;-37.950;145.008;2023-01-28T12:14:17;100789.19;;;21.84;56.09
54870;BME280;40756;-37.950;145.008;2023-01-28T12:16:56;100775.90;;;22.01;55.07
54870;BME280;40756;-37.950;145.008;2023-01-28T12:19:38;100763.24;;;22.50;54.16
54870;BME280;40756;-37.950;145.008;2023-01-28T12:22:44;100760.33;;;22.11;54.39
54870;BME280;40756;-37.950;145.008;2023-01-28T12:25:29;100766.16;;;21.81;55.09
54870;BME280;40756;-37.950;145.008;2023-01-28T12:28:07;100771.81;;;22.33;54.25
54870;BME280;40756;-37.950;145.008;2023-01-28T12:30:59;100771.40;;;22.20;55.79
54870;BME280;40756;-37.950;145.008;2023-01-28T12:33:46;100761.21;;;21.95;55.36
54870;BME280;40756;-37.950;145.008;2023-01-28T12:36:30;100756.13;;;22.16;55.16
54870;BME280;40756;-37.950;145.008;2023-01-28T12:39:17;100750.03;;;22.07;54.78
54870;BME280;40756;-37.950;145.008;2023-01-28T12:41:56;100764.09;;;21.59;56.00
54870;BME280;40756;-37.950;145.008;2023-01-28T12:44:33;100771.04;;;22.20;55.59
54870;BME280;40756;-37.950;145.008;2023-01-28T12:47:07;100776.15;;;21.91;55.31
54870;BME280;40756;-37.950;145.008;2023-01-28T12:49:41;100768.57;;;21.87;55.18